createdAt,value
2019-03-01T00:00:18.861Z,99.99
2019-03-01T00:01:18.847Z,99.99
2019-03-01T00:02:18.831Z,99.99
2019-03-01T00:03:18.820Z,99.99
2019-03-01T00:04:18.828Z,99.99
2019-03-01T00:05:18.792Z,99.99
2019-03-01T00:06:18.780Z,99.99
2019-03-01T00:07:18.763Z,99.99
2019-03-01T00:08:18.747Z,99.99
2019-03-01T00:09:18.734Z,99.99
2019-03-01T00:10:18.721Z,99.99
2019-03-01T00:11:18.708Z,99.99
2019-03-01T00:12:18.737Z,99.99
2019-03-01T00:13:18.680Z,99.99
2019-03-01T00:14:18.664Z,99.99
2019-03-01T00:15:18.651Z,99.99
2019-03-01T00:16:18.637Z,99.99
2019-03-01T00:17:18.626Z,99.99
2019-03-01T00:18:18.613Z,99.99
2019-03-01T00:19:18.596Z,99.99
2019-03-01T00:20:18.580Z,99.99
2019-03-01T00:21:18.567Z,99.99
2019-03-01T00:22:18.557Z,99.99
2019-03-01T00:23:18.541Z,99.99
2019-03-01T00:24:18.529Z,99.99
2019-03-01T00:25:18.512Z,99.99
2019-03-01T00:26:18.496Z,99.99
2019-03-01T00:27:18.483Z,99.99
2019-03-01T00:28:18.472Z,99.99
2019-03-01T00:29:18.458Z,99.99
2019-03-01T00:30:18.440Z,99.99
2019-03-01T00:31:18.426Z,99.99
2019-03-01T00:32:18.414Z,99.99
2019-03-01T00:33:18.397Z,99.99
2019-03-01T00:34:18.383Z,99.99
2019-03-01T00:35:18.369Z,99.99
2019-03-01T00:36:18.354Z,99.99
2019-03-01T00:37:18.342Z,99.99
2019-03-01T00:38:18.325Z,99.99
2019-03-01T00:39:18.313Z,99.99
2019-03-01T00:40:18.300Z,99.99
2019-03-01T00:41:18.283Z,99.99
2019-03-01T00:42:18.268Z,99.99
2019-03-01T00:43:18.255Z,99.99
2019-03-01T00:44:18.242Z,99.99
2019-03-01T00:45:18.232Z,99.99
2019-03-01T00:46:18.216Z,99.99
2019-03-01T00:47:18.225Z,99.99
2019-03-01T00:48:18.184Z,99.99
2019-03-01T00:49:18.169Z,99.99
2019-03-01T00:50:18.156Z,99.99
2019-03-01T00:51:18.141Z,99.99
2019-03-01T00:52:18.133Z,99.99
2019-03-01T00:53:18.112Z,99.99
2019-03-01T00:54:18.100Z,99.99
2019-03-01T00:55:18.086Z,99.99
2019-03-01T00:56:18.109Z,99.99
2019-03-01T00:57:17.823Z,99.99
2019-03-01T00:58:18.041Z,99.99
2019-03-01T00:59:18.069Z,99.99
2019-03-01T01:00:18.264Z,99.99
2019-03-01T01:01:18.006Z,99.99
2019-03-01T01:02:17.983Z,99.99
2019-03-01T01:03:17.969Z,99.99
2019-03-01T01:04:17.957Z,99.99
2019-03-01T01:05:17.949Z,99.99
2019-03-01T01:06:17.927Z,99.99
2019-03-01T01:07:17.912Z,99.99
2019-03-01T01:08:17.902Z,99.99
2019-03-01T01:09:17.883Z,99.99
2019-03-01T01:10:17.867Z,99.99
2019-03-01T01:11:17.854Z,99.99
2019-03-01T01:12:17.840Z,99.99
2019-03-01T01:13:17.828Z,99.99
2019-03-01T01:14:17.818Z,99.99
2019-03-01T01:15:17.796Z,99.99
2019-03-01T01:16:17.786Z,99.99
2019-03-01T01:17:17.776Z,99.99
2019-03-01T01:18:17.754Z,99.99
2019-03-01T01:19:17.744Z,99.99
2019-03-01T01:20:17.730Z,99.99
2019-03-01T01:21:17.713Z,99.99
2019-03-01T01:22:17.698Z,99.99
2019-03-01T01:23:17.687Z,99.99
2019-03-01T01:24:17.673Z,99.99
2019-03-01T01:25:17.660Z,99.99
2019-03-01T01:26:17.645Z,99.99
2019-03-01T01:27:17.633Z,99.99
2019-03-01T01:28:17.622Z,99.99
2019-03-01T01:29:17.601Z,99.99
2019-03-01T01:30:17.636Z,99.99
2019-03-01T01:31:17.825Z,99.99
2019-03-01T01:32:17.561Z,99.99
2019-03-01T01:33:17.550Z,99.99
2019-03-01T01:34:17.534Z,99.99
2019-03-01T01:35:17.521Z,99.99
2019-03-01T01:36:17.509Z,99.99
2019-03-01T01:37:17.489Z,99.99
2019-03-01T01:38:17.477Z,99.99
2019-03-01T01:39:17.465Z,99.99
2019-03-01T01:40:17.449Z,99.99
2019-03-01T01:41:17.436Z,99.99
2019-03-01T01:42:17.426Z,99.99
2019-03-01T01:43:17.409Z,99.99
2019-03-01T01:44:17.392Z,99.99
2019-03-01T01:45:17.384Z,99.99
2019-03-01T01:46:17.381Z,99.99
2019-03-01T01:47:17.359Z,99.99
2019-03-01T01:48:17.340Z,99.99
2019-03-01T01:49:17.334Z,99.99
2019-03-01T01:50:17.324Z,99.99
2019-03-01T01:51:17.298Z,99.99
2019-03-01T01:52:17.323Z,99.99
2019-03-01T01:53:17.272Z,99.99
2019-03-01T01:54:17.260Z,99.63
2019-03-01T01:55:17.262Z,99.99
2019-03-01T01:56:17.233Z,99.73
2019-03-01T01:57:17.222Z,99.54
2019-03-01T01:58:17.209Z,99.54
2019-03-01T01:59:17.199Z,99.54
2019-03-01T02:00:17.190Z,99.73
2019-03-01T02:01:17.166Z,99.82
2019-03-01T02:02:17.150Z,99.99
2019-03-01T02:03:17.139Z,99.99
2019-03-01T02:04:17.124Z,99.99
2019-03-01T02:05:17.113Z,99.44
2019-03-01T02:06:17.102Z,98.97
2019-03-01T02:07:17.092Z,99.3
2019-03-01T02:08:17.079Z,99.35
2019-03-01T02:09:17.060Z,99.06
2019-03-01T02:10:17.044Z,98.59
2019-03-01T02:11:17.041Z,98.78
2019-03-01T02:12:17.019Z,98.68
2019-03-01T02:13:17.004Z,98.68
2019-03-01T02:14:17.024Z,98.78
2019-03-01T02:15:16.977Z,98.78
2019-03-01T02:16:16.963Z,98.49
2019-03-01T02:17:16.950Z,98.49
2019-03-01T02:18:16.943Z,98.87
2019-03-01T02:19:16.925Z,98.59
2019-03-01T02:20:16.911Z,99.26
2019-03-01T02:21:16.898Z,99.16
2019-03-01T02:22:16.885Z,99.26
2019-03-01T02:23:16.880Z,99.63
2019-03-01T02:24:16.861Z,99.54
2019-03-01T02:25:16.848Z,99.26
2019-03-01T02:26:16.830Z,99.26
2019-03-01T02:27:16.817Z,99.35
2019-03-01T02:28:16.803Z,99.44
2019-03-01T02:29:16.790Z,99.91
2019-03-01T02:30:16.779Z,99.99
2019-03-01T02:31:16.766Z,99.82
2019-03-01T02:32:16.753Z,99.82
2019-03-01T02:33:16.737Z,99.91
2019-03-01T02:34:16.723Z,99.63
2019-03-01T02:35:16.713Z,99.82
2019-03-01T02:36:16.703Z,99.54
2019-03-01T02:37:16.707Z,99.82
2019-03-01T02:38:16.675Z,99.63
2019-03-01T02:39:16.660Z,99.91
2019-03-01T02:40:16.654Z,99.82
2019-03-01T02:41:16.650Z,99.91
2019-03-01T02:42:16.618Z,99.73
2019-03-01T02:43:16.615Z,99.54
2019-03-01T02:44:16.586Z,99.06
2019-03-01T02:45:16.605Z,99.26
2019-03-01T02:46:16.563Z,99.44
2019-03-01T02:47:16.553Z,99.16
2019-03-01T02:48:16.534Z,98.97
2019-03-01T02:49:16.519Z,99.26
2019-03-01T02:50:16.511Z,98.97
2019-03-01T02:51:16.501Z,98.78
2019-03-01T02:52:16.482Z,98.78
2019-03-01T02:53:16.467Z,98.78
2019-03-01T02:54:16.455Z,98.68
2019-03-01T02:55:16.461Z,98.68
2019-03-01T02:56:16.427Z,98.78
2019-03-01T02:57:16.413Z,98.87
2019-03-01T02:58:16.419Z,98.87
2019-03-01T02:59:16.420Z,98.78
2019-03-01T03:00:16.393Z,99.06
2019-03-01T03:01:16.359Z,98.87
2019-03-01T03:02:16.349Z,98.64
2019-03-01T03:03:16.337Z,98.49
2019-03-01T03:04:16.318Z,98.64
2019-03-01T03:05:16.304Z,99.3
2019-03-01T03:06:16.294Z,98.83
2019-03-01T03:07:16.296Z,98.73
2019-03-01T03:08:16.265Z,98.64
2019-03-01T03:09:16.249Z,98.73
2019-03-01T03:10:16.237Z,98.83
2019-03-01T03:11:16.227Z,99.02
2019-03-01T03:12:16.210Z,99.21
2019-03-01T03:13:16.196Z,98.45
2019-03-01T03:14:16.188Z,98.16
2019-03-01T03:15:16.173Z,98.26
2019-03-01T03:16:16.163Z,98.35
2019-03-01T03:17:16.145Z,98.54
2019-03-01T03:18:16.163Z,98.35
2019-03-01T03:19:16.120Z,97.88
2019-03-01T03:20:16.103Z,97.97
2019-03-01T03:21:16.131Z,98.07
2019-03-01T03:22:16.085Z,97.6
2019-03-01T03:23:16.101Z,97.69
2019-03-01T03:24:16.057Z,97.5
2019-03-01T03:25:16.051Z,97.74
2019-03-01T03:26:16.030Z,97.64
2019-03-01T03:27:16.016Z,97.92
2019-03-01T03:28:15.786Z,97.74
2019-03-01T03:29:15.991Z,97.27
2019-03-01T03:30:15.998Z,97.45
2019-03-01T03:31:15.970Z,97.55
2019-03-01T03:32:15.967Z,97.45
2019-03-01T03:33:15.958Z,96.88
2019-03-01T03:34:15.941Z,97.07
2019-03-01T03:35:15.987Z,96.79
2019-03-01T03:36:16.170Z,96.79
2019-03-01T03:37:15.660Z,96.88
2019-03-01T03:38:15.876Z,96.5
2019-03-01T03:39:15.866Z,96.41
2019-03-01T03:40:15.846Z,96.12
2019-03-01T03:41:15.846Z,96.98
2019-03-01T03:42:15.821Z,96.88
2019-03-01T03:43:15.811Z,96.12
2019-03-01T03:44:15.796Z,96.22
2019-03-01T03:45:15.800Z,96.12
2019-03-01T03:46:15.770Z,96.31
2019-03-01T03:47:15.758Z,96.41
2019-03-01T03:48:15.754Z,95.94
2019-03-01T03:49:15.740Z,95.65
2019-03-01T03:50:15.734Z,95.65
2019-03-01T03:51:15.710Z,95.75
2019-03-01T03:52:15.745Z,95.75
2019-03-01T03:53:15.685Z,95.75
2019-03-01T03:54:15.671Z,95.75
2019-03-01T03:55:15.675Z,95.84
2019-03-01T03:56:15.646Z,95.75
2019-03-01T03:57:15.638Z,95.75
2019-03-01T03:58:15.627Z,95.94
2019-03-01T03:59:15.613Z,96.12
2019-03-01T04:00:15.599Z,95.55
2019-03-01T04:01:15.590Z,95.6
2019-03-01T04:02:15.574Z,95.65
2019-03-01T04:03:15.563Z,95.79
2019-03-01T04:04:15.547Z,95.89
2019-03-01T04:05:15.536Z,96.17
2019-03-01T04:06:15.535Z,95.6
2019-03-01T04:07:15.763Z,95.7
2019-03-01T04:08:15.504Z,95.51
2019-03-01T04:09:15.486Z,95.7
2019-03-01T04:10:15.472Z,95.51
2019-03-01T04:11:15.478Z,95.89
2019-03-01T04:12:15.445Z,95.79
2019-03-01T04:13:16.713Z,95.32
2019-03-01T04:14:15.419Z,95.12
2019-03-01T04:15:15.418Z,94.74
2019-03-01T04:16:15.400Z,94.84
2019-03-01T04:17:15.382Z,95.03
2019-03-01T04:18:15.382Z,95.03
2019-03-01T04:19:15.363Z,95.22
2019-03-01T04:20:15.356Z,95.12
2019-03-01T04:21:15.337Z,95.03
2019-03-01T04:22:15.323Z,94.93
2019-03-01T04:23:15.315Z,95.03
2019-03-01T04:24:15.310Z,95.12
2019-03-01T04:25:15.286Z,95.03
2019-03-01T04:26:15.277Z,95.03
2019-03-01T04:27:15.271Z,95.12
2019-03-01T04:28:15.250Z,95.03
2019-03-01T04:29:15.238Z,95.32
2019-03-01T04:30:15.227Z,94.93
2019-03-01T04:31:15.219Z,94.93
2019-03-01T04:32:15.202Z,95.12
2019-03-01T04:33:15.191Z,95.22
2019-03-01T04:34:15.177Z,94.65
2019-03-01T04:35:15.176Z,94.74
2019-03-01T04:36:15.152Z,94.65
2019-03-01T04:37:15.177Z,94.65
2019-03-01T04:38:15.128Z,94.65
2019-03-01T04:39:15.130Z,94.65
2019-03-01T04:40:15.106Z,94.84
2019-03-01T04:41:15.093Z,94.74
2019-03-01T04:42:15.077Z,94.56
2019-03-01T04:43:15.065Z,95.12
2019-03-01T04:44:15.097Z,94.74
2019-03-01T04:45:15.051Z,95.12
2019-03-01T04:46:15.031Z,94.84
2019-03-01T04:47:15.017Z,95.03
2019-03-01T04:48:15.007Z,95.22
2019-03-01T04:49:14.994Z,95.51
2019-03-01T04:50:14.986Z,94.93
2019-03-01T04:51:14.983Z,95.12
2019-03-01T04:52:14.956Z,95.12
2019-03-01T04:53:14.945Z,94.84
2019-03-01T04:54:14.934Z,94.84
2019-03-01T04:55:14.919Z,95.12
2019-03-01T04:56:14.909Z,94.93
2019-03-01T04:57:14.901Z,95.03
2019-03-01T04:58:14.882Z,94.93
2019-03-01T04:59:14.875Z,95.03
2019-03-01T05:00:14.863Z,94.93
2019-03-01T05:01:14.850Z,94.93
2019-03-01T05:02:14.599Z,95.12
2019-03-01T05:03:14.826Z,95.12
2019-03-01T05:04:14.823Z,95.12
2019-03-01T05:05:14.801Z,95.03
2019-03-01T05:06:14.809Z,94.84
2019-03-01T05:07:14.796Z,94.74
2019-03-01T05:08:14.520Z,94.93
2019-03-01T05:09:14.748Z,94.93
2019-03-01T05:10:14.738Z,94.84
2019-03-01T05:11:14.732Z,95.03
2019-03-01T05:12:14.717Z,94.93
2019-03-01T05:13:14.703Z,95.32
2019-03-01T05:14:14.689Z,95.12
2019-03-01T05:15:14.718Z,95.12
2019-03-01T05:16:14.671Z,95.89
2019-03-01T05:17:14.662Z,95.79
2019-03-01T05:18:14.646Z,95.6
2019-03-01T05:19:14.631Z,95.98
2019-03-01T05:20:14.616Z,95.89
2019-03-01T05:21:14.605Z,95.89
2019-03-01T05:22:14.597Z,95.6
2019-03-01T05:23:14.581Z,96.55
2019-03-01T05:24:14.569Z,96.36
2019-03-01T05:25:14.599Z,96.36
2019-03-01T05:26:14.545Z,96.26
2019-03-01T05:27:14.531Z,96.45
2019-03-01T05:28:14.523Z,95.98
2019-03-01T05:29:14.510Z,96.93
2019-03-01T05:30:14.496Z,97.03
2019-03-01T05:31:14.483Z,96.65
2019-03-01T05:32:14.472Z,96.74
2019-03-01T05:33:14.458Z,96.84
2019-03-01T05:34:14.447Z,97.12
2019-03-01T05:35:14.436Z,96.55
2019-03-01T05:36:14.426Z,97.12
2019-03-01T05:37:14.410Z,97.03
2019-03-01T05:38:23.822Z,97.6
2019-03-01T05:39:14.389Z,97.31
2019-03-01T05:40:14.374Z,97.31
2019-03-01T05:41:14.363Z,97.31
2019-03-01T05:42:14.353Z,97.5
2019-03-01T05:43:14.341Z,97.69
2019-03-01T05:44:14.328Z,97.5
2019-03-01T05:45:14.316Z,97.31
2019-03-01T05:46:14.306Z,97.41
2019-03-01T05:47:14.295Z,97.31
2019-03-01T05:48:14.278Z,97.31
2019-03-01T05:49:14.268Z,97.41
2019-03-01T05:50:14.272Z,97.41
2019-03-01T05:51:14.243Z,97.45
2019-03-01T05:52:14.249Z,97.36
2019-03-01T05:53:14.218Z,97.27
2019-03-01T05:54:14.212Z,97.55
2019-03-01T05:55:14.199Z,97.55
2019-03-01T05:56:14.185Z,97.36
2019-03-01T05:57:14.178Z,97.36
2019-03-01T05:58:19.053Z,97.36
2019-03-01T05:59:14.145Z,97.36
2019-03-01T06:00:14.138Z,97.36
2019-03-01T06:01:14.122Z,97.45
2019-03-01T06:02:13.868Z,97.45
2019-03-01T06:03:14.097Z,97.64
2019-03-01T06:04:14.085Z,97.27
2019-03-01T06:05:14.075Z,97.27
2019-03-01T06:06:14.060Z,97.27
2019-03-01T06:07:14.052Z,97.74
2019-03-01T06:08:14.037Z,97.45
2019-03-01T06:09:14.025Z,97.17
2019-03-01T06:10:14.014Z,97.55
2019-03-01T06:11:14.003Z,97.55
2019-03-01T06:12:14.239Z,97.55
2019-03-01T06:13:13.981Z,97.45
2019-03-01T06:14:13.965Z,97.08
2019-03-01T06:15:13.953Z,97.36
2019-03-01T06:16:13.948Z,97.17
2019-03-01T06:17:13.929Z,96.79
2019-03-01T06:18:13.917Z,96.79
2019-03-01T06:19:13.911Z,97.27
2019-03-01T06:20:13.901Z,97.17
2019-03-01T06:21:13.885Z,97.08
2019-03-01T06:22:13.873Z,96.79
2019-03-01T06:23:13.858Z,96.89
2019-03-01T06:24:13.847Z,96.89
2019-03-01T06:25:13.838Z,96.98
2019-03-01T06:26:13.822Z,96.22
2019-03-01T06:27:13.812Z,96.22
2019-03-01T06:28:13.815Z,96.65
2019-03-01T06:29:13.788Z,96.5
2019-03-01T06:30:13.778Z,96.74
2019-03-01T06:31:13.773Z,96.36
2019-03-01T06:32:13.756Z,96.46
2019-03-01T06:33:13.746Z,96.6
2019-03-01T06:34:13.734Z,96.31
2019-03-01T06:35:13.719Z,96.79
2019-03-01T06:36:13.710Z,96.98
2019-03-01T06:37:13.697Z,96.98
2019-03-01T06:38:13.687Z,96.79
2019-03-01T06:39:13.676Z,96.79
2019-03-01T06:40:13.663Z,96.79
2019-03-01T06:41:13.650Z,96.98
2019-03-01T06:42:13.639Z,96.98
2019-03-01T06:43:13.634Z,96.94
2019-03-01T06:44:13.629Z,96.55
2019-03-01T06:45:13.603Z,96.55
2019-03-01T06:46:13.348Z,96.94
2019-03-01T06:47:13.579Z,96.94
2019-03-01T06:48:13.569Z,96.94
2019-03-01T06:49:13.561Z,96.36
2019-03-01T06:50:15.521Z,96.08
2019-03-01T06:51:13.608Z,96.65
2019-03-01T06:52:13.526Z,96.46
2019-03-01T06:53:13.511Z,96.46
2019-03-01T06:54:13.503Z,96.94
2019-03-01T06:55:13.487Z,96.74
2019-03-01T06:56:13.475Z,96.94
2019-03-01T06:57:13.465Z,96.65
2019-03-01T06:58:13.452Z,97.03
2019-03-01T06:59:13.446Z,96.36
2019-03-01T07:00:13.431Z,96.46
2019-03-01T07:01:13.418Z,96.36
2019-03-01T07:02:13.407Z,96.46
2019-03-01T07:03:28.066Z,96.46
2019-03-01T07:04:13.146Z,96.26
2019-03-01T07:05:13.403Z,96.26
2019-03-01T07:06:13.359Z,95.79
2019-03-01T07:07:13.352Z,96.08
2019-03-01T07:09:13.329Z,96.12
2019-03-01T07:11:13.315Z,97.55
2019-03-01T07:12:13.049Z,97.45
2019-03-01T07:13:13.280Z,98.6
2019-03-01T07:14:13.521Z,98.93
2019-03-01T07:15:13.258Z,99.11
2019-03-01T07:16:13.246Z,99.4
2019-03-01T07:17:13.234Z,99.99
2019-03-01T07:18:13.223Z,99.97
2019-03-01T07:19:13.212Z,99.97
2019-03-01T07:20:15.100Z,99.99
2019-03-01T07:21:13.187Z,99.99
2019-03-01T07:22:13.175Z,99.99
2019-03-01T07:23:13.164Z,99.99
2019-03-01T07:24:13.278Z,99.99
2019-03-01T07:25:13.141Z,99.99
2019-03-01T07:26:13.130Z,99.99
2019-03-01T07:27:14.843Z,99.99
2019-03-01T07:28:13.117Z,99.99
2019-03-01T07:29:13.100Z,99.99
2019-03-01T07:30:13.079Z,99.99
2019-03-01T07:31:13.066Z,99.99
2019-03-01T07:32:13.068Z,99.99
2019-03-01T07:33:13.042Z,99.99
2019-03-01T07:34:13.030Z,99.97
2019-03-01T07:35:13.041Z,99.78
2019-03-01T07:36:13.008Z,99.78
2019-03-01T07:37:12.994Z,99.78
2019-03-01T07:38:12.983Z,99.4
2019-03-01T07:39:12.971Z,99.11
2019-03-01T07:40:12.963Z,99.3
2019-03-01T07:41:12.946Z,99.3
2019-03-01T07:42:12.962Z,99.69
2019-03-01T07:43:12.937Z,99.4
2019-03-01T07:44:12.912Z,99.78
2019-03-01T07:45:13.153Z,99.5
2019-03-01T07:46:12.904Z,99.59
2019-03-01T07:47:12.875Z,99.59
2019-03-01T07:48:12.861Z,99.55
2019-03-01T07:49:12.849Z,99.26
2019-03-01T07:50:12.860Z,99.26
2019-03-01T07:51:12.593Z,99.07
2019-03-01T07:52:12.815Z,98.5
2019-03-01T07:53:12.815Z,98.03
2019-03-01T07:54:16.688Z,98.5
2019-03-01T07:55:12.788Z,98.41
2019-03-01T07:56:12.776Z,98.97
2019-03-01T07:57:14.726Z,99.36
2019-03-01T07:58:12.753Z,98.41
2019-03-01T07:59:12.737Z,98.5
2019-03-01T08:00:16.160Z,98.6
2019-03-01T08:01:12.710Z,98.41
2019-03-01T08:02:12.698Z,98.12
2019-03-01T08:03:15.105Z,97.93
2019-03-01T08:04:12.673Z,97.45
2019-03-01T08:05:13.493Z,97.83
2019-03-01T08:06:15.688Z,97.83
2019-03-01T08:07:12.642Z,97.74
2019-03-01T08:08:12.629Z,98.03
2019-03-01T08:09:12.619Z,97.55
2019-03-01T08:10:12.605Z,97.64
2019-03-01T08:11:12.595Z,97.55
2019-03-01T08:12:12.607Z,97.74
2019-03-01T08:13:14.676Z,97.55
2019-03-01T08:14:12.796Z,97.64
2019-03-01T08:15:12.555Z,97.55
2019-03-01T08:16:12.784Z,97.55
2019-03-01T08:17:12.526Z,97.27
2019-03-01T08:18:12.519Z,97.36
2019-03-01T08:19:15.673Z,97.74
2019-03-01T08:20:12.488Z,97.79
2019-03-01T08:21:14.880Z,97.64
2019-03-01T08:22:12.469Z,97.6
2019-03-01T08:23:14.348Z,97.79
2019-03-01T08:24:14.148Z,96.94
2019-03-01T08:25:12.432Z,96.84
2019-03-01T08:26:12.426Z,97.03
2019-03-01T08:27:13.549Z,96.55
2019-03-01T08:28:12.407Z,96.46
2019-03-01T08:29:12.387Z,96.65
2019-03-01T08:30:13.624Z,97.03
2019-03-01T08:31:12.367Z,96.46
2019-03-01T08:32:12.352Z,97.03
2019-03-01T08:33:12.342Z,97.03
2019-03-01T08:34:14.332Z,96.26
2019-03-01T08:35:12.323Z,96.55
2019-03-01T08:36:12.306Z,96.17
2019-03-01T08:37:14.413Z,96.55
2019-03-01T08:38:12.284Z,96.36
2019-03-01T08:39:12.274Z,95.98
2019-03-01T08:40:16.757Z,95.89
2019-03-01T08:41:12.008Z,95.89
2019-03-01T08:42:12.242Z,95.98
2019-03-01T08:43:15.489Z,96.08
2019-03-01T08:44:12.217Z,95.98
2019-03-01T08:45:12.208Z,96.08
2019-03-01T08:46:12.919Z,96.17
2019-03-01T08:47:12.432Z,96.26
2019-03-01T08:48:12.182Z,95.79
2019-03-01T08:49:13.662Z,96.55
2019-03-01T08:50:12.150Z,96.55
2019-03-01T08:51:12.136Z,96.55
2019-03-01T08:52:12.125Z,95.98
2019-03-01T08:53:15.074Z,95.89
2019-03-01T08:54:12.104Z,95.94
2019-03-01T08:55:12.094Z,95.98
2019-03-01T08:56:14.474Z,95.75
2019-03-01T08:57:12.072Z,95.65
2019-03-01T08:58:12.059Z,95.94
2019-03-01T08:59:14.069Z,96.31
2019-03-01T09:00:12.040Z,95.94
2019-03-01T09:01:12.240Z,96.03
2019-03-01T09:02:14.364Z,95.17
2019-03-01T09:03:12.006Z,95.08
2019-03-01T09:04:14.063Z,95.36
2019-03-01T09:05:12.331Z,94.98
2019-03-01T09:06:11.973Z,94.98
2019-03-01T09:07:11.962Z,94.89
2019-03-01T09:08:11.953Z,94.89
2019-03-01T09:09:11.945Z,94.7
2019-03-01T09:10:11.929Z,94.89
2019-03-01T09:11:12.799Z,94.6
2019-03-01T09:12:11.908Z,94.84
2019-03-01T09:13:11.906Z,94.7
2019-03-01T09:14:11.889Z,94.13
2019-03-01T09:15:11.879Z,93.7
2019-03-01T09:16:11.866Z,93.89
2019-03-01T09:17:11.855Z,93.84
2019-03-01T09:18:14.688Z,93.74
2019-03-01T09:19:11.845Z,93.94
2019-03-01T09:20:11.821Z,93.46
2019-03-01T09:21:14.933Z,93.51
2019-03-01T09:22:11.800Z,93.74
2019-03-01T09:23:27.264Z,93.84
2019-03-01T09:24:11.778Z,93.94
2019-03-01T09:25:11.768Z,93.37
2019-03-01T09:26:11.759Z,92.41
2019-03-01T09:27:11.748Z,92.89
2019-03-01T09:28:11.754Z,92.89
2019-03-01T09:29:12.643Z,93.32
2019-03-01T09:30:11.717Z,93.41
2019-03-01T09:31:11.704Z,93.89
2019-03-01T09:32:11.697Z,93.89
2019-03-01T09:33:11.685Z,94.42
2019-03-01T09:34:11.674Z,95.08
2019-03-01T09:35:11.675Z,95.56
2019-03-01T09:36:14.325Z,95.65
2019-03-01T09:37:11.638Z,96.22
2019-03-01T09:38:13.764Z,95.94
2019-03-01T09:39:14.373Z,95.65
2019-03-01T09:40:11.614Z,96.31
2019-03-01T09:41:11.598Z,96.12
2019-03-01T09:42:17.494Z,95.65
2019-03-01T09:43:11.577Z,95.94
2019-03-01T09:44:11.562Z,96.41
2019-03-01T09:45:13.558Z,96.41
2019-03-01T09:46:11.542Z,96.31
2019-03-01T09:47:11.535Z,96.5
2019-03-01T09:48:15.186Z,95.94
2019-03-01T09:49:11.508Z,95.65
2019-03-01T09:50:11.746Z,94.89
2019-03-01T09:51:15.744Z,95.17
2019-03-01T09:52:11.473Z,95.08
2019-03-01T09:53:11.467Z,95.17
2019-03-01T09:54:12.606Z,94.7
2019-03-01T09:55:11.441Z,94.42
2019-03-01T09:56:14.893Z,94.42
2019-03-01T09:57:12.324Z,94.32
2019-03-01T09:58:11.410Z,94.6
2019-03-01T09:59:11.395Z,94.6
2019-03-01T10:00:11.385Z,95.08
2019-03-01T10:01:11.394Z,94.98
2019-03-01T10:02:11.365Z,95.65
2019-03-01T10:03:11.358Z,95.27
2019-03-01T10:04:11.347Z,95.56
2019-03-01T10:05:11.330Z,95.56
2019-03-01T10:06:11.320Z,95.27
2019-03-01T10:07:11.306Z,94.79
2019-03-01T10:08:11.299Z,94.6
2019-03-01T10:09:11.285Z,94.7
2019-03-01T10:10:11.276Z,94.32
2019-03-01T10:11:11.261Z,94.6
2019-03-01T10:12:11.259Z,94.79
2019-03-01T10:13:11.242Z,95.27
2019-03-01T10:14:11.231Z,94.89
2019-03-01T10:15:11.223Z,94.51
2019-03-01T10:16:11.205Z,94.89
2019-03-01T10:17:11.194Z,94.7
2019-03-01T10:18:11.182Z,94.84
2019-03-01T10:19:11.172Z,94.65
2019-03-01T10:20:11.157Z,94.65
2019-03-01T10:21:11.405Z,93.98
2019-03-01T10:22:11.136Z,94.08
2019-03-01T10:23:11.128Z,93.79
2019-03-01T10:24:11.115Z,93.6
2019-03-01T10:25:11.103Z,93.51
2019-03-01T10:26:11.094Z,93.32
2019-03-01T10:27:10.839Z,93.32
2019-03-01T10:28:11.069Z,93.51
2019-03-01T10:29:11.057Z,93.41
2019-03-01T10:30:11.052Z,93.32
2019-03-01T10:31:11.041Z,93.32
2019-03-01T10:32:12.475Z,93.32
2019-03-01T10:33:11.014Z,93.51
2019-03-01T10:34:11.002Z,92.94
2019-03-01T10:35:10.991Z,92.99
2019-03-01T10:36:10.982Z,92.84
2019-03-01T10:37:10.971Z,92.99
2019-03-01T10:38:10.960Z,92.41
2019-03-01T10:39:10.949Z,92.7
2019-03-01T10:40:10.935Z,92.7
2019-03-01T10:41:10.923Z,92.6
2019-03-01T10:42:10.914Z,92.6
2019-03-01T10:43:10.907Z,91.94
2019-03-01T10:44:10.891Z,92.03
2019-03-01T10:45:10.881Z,92.08
2019-03-01T10:46:10.870Z,91.31
2019-03-01T10:47:10.860Z,91.31
2019-03-01T10:48:10.849Z,91.13
2019-03-01T10:49:10.843Z,90.84
2019-03-01T10:50:10.827Z,90.84
2019-03-01T10:51:10.818Z,90.84
2019-03-01T10:52:10.806Z,90.94
2019-03-01T10:53:10.873Z,90.36
2019-03-01T10:54:10.786Z,90.46
2019-03-01T10:55:10.777Z,89.61
2019-03-01T10:56:10.766Z,89.98
2019-03-01T10:57:10.756Z,90.27
2019-03-01T10:58:10.744Z,90.94
2019-03-01T10:59:10.734Z,90.56
2019-03-01T11:00:10.727Z,91.03
2019-03-01T11:01:10.715Z,90.27
2019-03-01T11:02:10.702Z,89.98
2019-03-01T11:03:10.693Z,90.94
2019-03-01T11:04:10.685Z,90.84
2019-03-01T11:05:10.678Z,90.8
2019-03-01T11:06:10.663Z,90.84
2019-03-01T11:07:10.652Z,90.08
2019-03-01T11:08:10.642Z,90.36
2019-03-01T11:09:10.631Z,90.08
2019-03-01T11:10:10.632Z,89.94
2019-03-01T11:11:10.611Z,89.75
2019-03-01T11:12:10.608Z,90.42
2019-03-01T11:13:10.891Z,90.8
2019-03-01T11:14:10.581Z,90.8
2019-03-01T11:15:10.570Z,90.89
2019-03-01T11:16:10.559Z,91.46
2019-03-01T11:17:10.548Z,91.08
2019-03-01T11:18:10.546Z,90.99
2019-03-01T11:19:10.532Z,91.27
2019-03-01T11:20:10.517Z,91.42
2019-03-01T11:21:10.511Z,91.7
2019-03-01T11:22:10.496Z,91.17
2019-03-01T11:23:10.488Z,91.32
2019-03-01T11:24:10.478Z,91.51
2019-03-01T11:25:10.465Z,91.99
2019-03-01T11:26:10.458Z,92.27
2019-03-01T11:27:15.563Z,92.36
2019-03-01T11:28:11.253Z,92.18
2019-03-01T11:29:10.424Z,92.18
2019-03-01T11:30:10.414Z,92.27
2019-03-01T11:31:10.402Z,92.18
2019-03-01T11:32:10.390Z,92.36
2019-03-01T11:33:10.380Z,92.08
2019-03-01T11:34:10.370Z,92.27
2019-03-01T11:35:10.359Z,92.94
2019-03-01T11:36:10.348Z,92.46
2019-03-01T11:37:10.344Z,92.27
2019-03-01T11:38:10.327Z,92.27
2019-03-01T11:39:10.313Z,92.56
2019-03-01T11:40:10.309Z,92.7
2019-03-01T11:41:10.294Z,93.27
2019-03-01T11:42:10.283Z,93.65
2019-03-01T11:43:10.272Z,93.46
2019-03-01T11:44:10.261Z,93.37
2019-03-01T11:45:10.248Z,93.46
2019-03-01T11:46:10.006Z,93.55
2019-03-01T11:47:10.228Z,93.46
2019-03-01T11:48:10.221Z,93.75
2019-03-01T11:49:10.206Z,94.22
2019-03-01T11:50:10.193Z,94.13
2019-03-01T11:51:10.183Z,94.22
2019-03-01T11:52:10.175Z,94.13
2019-03-01T11:53:10.162Z,94.13
2019-03-01T11:54:10.146Z,94.32
2019-03-01T11:55:10.138Z,94.7
2019-03-01T11:56:10.127Z,94.22
2019-03-01T11:57:10.116Z,94.32
2019-03-01T11:58:10.106Z,93.94
2019-03-01T11:59:10.109Z,93.75
2019-03-01T12:00:10.084Z,94.18
2019-03-01T12:01:19.292Z,94.03
2019-03-01T12:02:10.061Z,93.27
2019-03-01T12:03:10.051Z,93.46
2019-03-01T12:04:10.038Z,93.46
2019-03-01T12:05:10.031Z,93.46
2019-03-01T12:06:10.015Z,93.94
2019-03-01T12:07:10.003Z,93.51
2019-03-01T12:08:09.994Z,93.6
2019-03-01T12:09:09.982Z,93.75
2019-03-01T12:10:09.975Z,94.13
2019-03-01T12:11:09.970Z,94.22
2019-03-01T12:12:09.950Z,94.03
2019-03-01T12:13:09.939Z,94.79
2019-03-01T12:14:09.926Z,95.56
2019-03-01T12:15:09.913Z,96.31
2019-03-01T12:16:09.904Z,96.03
2019-03-01T12:17:09.892Z,96.6
2019-03-01T12:18:09.936Z,96.31
2019-03-01T12:19:09.869Z,96.22
2019-03-01T12:20:09.860Z,96.03
2019-03-01T12:21:09.852Z,95.46
2019-03-01T12:22:19.247Z,96.31
2019-03-01T12:23:09.830Z,96.03
2019-03-01T12:24:09.813Z,96.22
2019-03-01T12:25:10.446Z,96.03
2019-03-01T12:26:09.789Z,95.65
2019-03-01T12:27:09.779Z,95.65
2019-03-01T12:28:09.767Z,95.75
2019-03-01T12:29:09.757Z,96.31
2019-03-01T12:30:09.753Z,96.03
2019-03-01T12:31:09.738Z,96.12
2019-03-01T12:32:09.725Z,96.22
2019-03-01T12:33:09.714Z,96.12
2019-03-01T12:34:09.704Z,96.5
2019-03-01T12:35:09.707Z,96.69
2019-03-01T12:36:09.686Z,96.6
2019-03-01T12:37:09.674Z,96.89
2019-03-01T12:38:09.655Z,97.17
2019-03-01T12:39:09.983Z,97.17
2019-03-01T12:40:09.632Z,97.36
2019-03-01T12:41:09.626Z,97.27
2019-03-01T12:42:09.611Z,97.17
2019-03-01T12:43:09.599Z,97.36
2019-03-01T12:44:09.591Z,97.27
2019-03-01T12:45:09.575Z,97.08
2019-03-01T12:46:09.566Z,97.17
2019-03-01T12:47:09.558Z,96.98
2019-03-01T12:48:09.540Z,96.03
2019-03-01T12:49:09.530Z,95.94
2019-03-01T12:50:09.519Z,96.41
2019-03-01T12:51:09.510Z,96.98
2019-03-01T12:52:09.496Z,96.41
2019-03-01T12:53:09.484Z,96.69
2019-03-01T12:54:09.476Z,96.6
2019-03-01T12:55:09.461Z,96.79
2019-03-01T12:56:09.454Z,96.12